Time;durP1;ratioP1;P1;durP2;ratioP2;P2;SDS_P1;SDS_P2;PMS_P1;PMS_P2;Temp;Humidity;BMP_temperature;BMP_pressure;BME280_temperature;BME280_humidity;BME280_pressure;Samples;Min_cycle;Max_cycle;Signal;HPM_P1;HPM_P2
2021/03/12 00:01:40;;;;;;;;;;;;;;;13.06;57.19;100582.88;4957145;28;19914;-81
2021/03/12 00:04:24;;;;;;;;;;;;;;;13.07;56.90;100584.47;4956925;28;19918;-81
2021/03/12 00:07:09;;;;;;;;;;;;;;;13.06;57.07;100589.13;4959712;28;19914;-82
2021/03/12 00:09:54;;;;;;;;;;;;;;;13.06;57.05;100580.94;4955014;28;19915;-80
2021/03/12 00:12:38;;;;;;;;;;;;;;;13.05;56.93;100586.75;4953633;28;19914;-81
2021/03/12 00:15:23;;;;;;;;;;;;;;;13.04;56.99;100585.16;4953333;29;19914;-81
2021/03/12 00:18:08;;;;;;;;;;;;;;;13.07;57.14;100595.41;4956694;28;19926;-81
2021/03/12 00:20:52;;;;;;;;;;;;;;;13.07;57.38;100596.19;4954520;28;19915;-80
2021/03/12 00:23:39;;;;;;;;;;;;;;;13.09;57.50;100595.88;4937021;29;19915;-81
2021/03/12 00:26:23;;;;;;;;;;;;;;;13.08;57.21;100597.00;4956493;28;19914;-79
2021/03/12 00:29:08;;;;;;;;;;;;;;;13.07;57.14;100592.66;4954234;28;19915;-81
2021/03/12 00:31:54;;;;;;;;;;;;;;;13.07;57.13;100598.94;4945945;29;19914;-81
2021/03/12 00:34:39;;;;;;;;;;;;;;;13.07;57.09;100589.94;4950930;28;19915;-82
2021/03/12 00:37:24;;;;;;;;;;;;;;;13.07;57.06;100576.28;4951337;28;19919;-81
2021/03/12 00:40:17;;;;;;;;;;;;;;;13.07;57.24;100570.81;4934830;29;19914;-82
2021/03/12 00:43:02;;;;;;;;;;;;;;;13.05;57.05;100573.91;4950167;28;19914;-81
2021/03/12 00:45:54;;;;;;;;;;;;;;;13.04;57.18;100571.50;4951837;29;19914;-79
2021/03/12 00:48:40;;;;;;;;;;;;;;;13.05;57.28;100570.38;4938165;29;19914;-79
2021/03/12 00:51:25;;;;;;;;;;;;;;;13.05;57.19;100571.19;4950865;29;19918;-80
2021/03/12 00:54:27;;;;;;;;;;;;;;;13.05;57.49;100582.09;4933210;29;19914;-80
2021/03/12 00:57:20;;;;;;;;;;;;;;;13.05;57.71;100581.31;4931083;29;19914;-81
2021/03/12 01:00:07;;;;;;;;;;;;;;;13.06;57.58;100578.22;4934773;29;19915;-80
2021/03/12 01:02:57;;;;;;;;;;;;;;;13.05;57.58;100568.47;4932470;29;19914;-80
2021/03/12 01:05:42;;;;;;;;;;;;;;;13.03;57.47;100576.16;4938934;29;19914;-79
2021/03/12 01:08:31;;;;;;;;;;;;;;;13.06;57.62;100577.41;4938226;29;19915;-79
2021/03/12 01:11:15;;;;;;;;;;;;;;;13.05;57.64;100568.47;4937225;29;19918;-79
2021/03/12 01:14:02;;;;;;;;;;;;;;;13.06;57.45;100571.94;4932215;29;19914;-79
2021/03/12 01:16:53;;;;;;;;;;;;;;;13.05;57.46;100570.38;4936389;29;19914;-80
2021/03/12 01:19:38;;;;;;;;;;;;;;;13.03;57.76;100569.91;4936483;29;19919;-79
2021/03/12 01:22:26;;;;;;;;;;;;;;;13.02;57.54;100576.50;4937467;29;19914;-79
2021/03/12 01:25:12;;;;;;;;;;;;;;;13.01;57.68;100570.22;4937368;29;19923;-80
2021/03/12 01:27:58;;;;;;;;;;;;;;;13.00;57.19;100562.41;4935437;29;19915;-79
2021/03/12 01:30:44;;;;;;;;;;;;;;;12.98;57.31;100556.47;4938913;29;19914;-79
2021/03/12 01:33:45;;;;;;;;;;;;;;;12.98;57.59;100549.06;4933630;29;19918;-79
2021/03/12 01:36:31;;;;;;;;;;;;;;;12.98;57.66;100537.34;4934442;29;19915;-79
2021/03/12 01:39:21;;;;;;;;;;;;;;;12.99;57.93;100553.41;4936906;29;19918;-79
2021/03/12 01:42:10;;;;;;;;;;;;;;;13.02;57.89;100550.00;4943264;28;19914;-80
2021/03/12 01:44:57;;;;;;;;;;;;;;;13.00;58.10;100535.91;4937886;28;20389;-79
2021/03/12 01:47:42;;;;;;;;;;;;;;;12.98;57.92;100531.91;4948880;28;19915;-79
2021/03/12 01:50:27;;;;;;;;;;;;;;;12.93;58.23;100529.38;4931997;29;19915;-79
2021/03/12 01:53:13;;;;;;;;;;;;;;;12.94;58.18;100537.25;4934229;29;19918;-79
2021/03/12 01:55:59;;;;;;;;;;;;;;;12.89;58.42;100536.66;4952605;28;20293;-80
2021/03/12 01:58:53;;;;;;;;;;;;;;;12.88;58.17;100524.13;4934239;29;20385;-80
2021/03/12 02:01:56;;;;;;;;;;;;;;;12.90;58.17;100524.59;4949957;28;20390;-79
2021/03/12 02:04:53;;;;;;;;;;;;;;;12.93;58.20;100518.47;4934997;29;19914;-79
2021/03/12 02:07:38;;;;;;;;;;;;;;;12.92;58.59;100517.66;4934396;29;19914;-79
2021/03/12 02:10:40;;;;;;;;;;;;;;;12.90;58.71;100516.41;4935549;29;19914;-80
2021/03/12 02:13:31;;;;;;;;;;;;;;;12.89;58.79;100520.28;4956623;28;19914;-79
2021/03/12 02:16:27;;;;;;;;;;;;;;;12.89;58.66;100526.53;4950242;28;19918;-81
2021/03/12 02:19:27;;;;;;;;;;;;;;;12.91;58.74;100515.25;4960868;28;19922;-82
2021/03/12 02:22:13;;;;;;;;;;;;;;;12.91;58.85;100518.78;4959513;28;19918;-81
2021/03/12 02:25:02;;;;;;;;;;;;;;;12.93;58.81;100518.47;4956843;29;19914;-81
2021/03/12 02:28:00;;;;;;;;;;;;;;;12.94;59.09;100520.06;4946223;29;19914;-81
2021/03/12 02:30:47;;;;;;;;;;;;;;;12.94;59.21;100509.94;4954897;29;19938;-80
2021/03/12 02:33:32;;;;;;;;;;;;;;;12.94;59.28;100509.16;4929656;29;19915;-81
2021/03/12 02:36:22;;;;;;;;;;;;;;;12.92;59.15;100508.66;4945790;29;19914;-80
2021/03/12 02:39:16;;;;;;;;;;;;;;;12.91;59.55;100507.88;4948093;28;20393;-79
2021/03/12 02:42:02;;;;;;;;;;;;;;;12.92;59.53;100505.94;4957081;28;20381;-80
2021/03/12 02:44:55;;;;;;;;;;;;;;;12.91;59.31;100499.69;4954787;28;19914;-80
2021/03/12 02:47:40;;;;;;;;;;;;;;;12.88;59.33;100499.56;4945079;28;19914;-79
2021/03/12 02:50:31;;;;;;;;;;;;;;;12.82;59.21;100482.59;4956311;28;19922;-80
2021/03/12 02:53:21;;;;;;;;;;;;;;;12.86;59.21;100476.13;4940106;29;19922;-81
2021/03/12 02:56:10;;;;;;;;;;;;;;;12.85;59.19;100474.53;4943446;29;20297;-79
2021/03/12 02:58:58;;;;;;;;;;;;;;;12.88;59.35;100475.00;4942030;29;19918;-79
2021/03/12 03:02:02;;;;;;;;;;;;;;;12.87;59.38;100476.94;4962578;28;19918;-81
2021/03/12 03:05:23;;;;;;;;;;;;;;;12.83;59.43;100474.09;4957987;29;19918;-80
2021/03/12 03:08:13;;;;;;;;;;;;;;;12.84;59.96;100485.81;4933012;29;19918;-80
2021/03/12 03:10:58;;;;;;;;;;;;;;;12.81;59.99;100479.06;4944921;29;19926;-80
2021/03/12 03:13:44;;;;;;;;;;;;;;;12.81;60.16;100476.34;4941395;29;19915;-80
2021/03/12 03:16:31;;;;;;;;;;;;;;;12.83;60.20;100471.34;4939483;29;19915;-80
2021/03/12 03:19:17;;;;;;;;;;;;;;;12.82;60.48;100475.22;4944612;29;19923;-81
2021/03/12 03:22:03;;;;;;;;;;;;;;;12.81;60.43;100486.47;4941793;29;19914;-80
2021/03/12 03:24:48;;;;;;;;;;;;;;;12.80;60.22;100485.66;4939267;29;19915;-80
2021/03/12 03:27:35;;;;;;;;;;;;;;;12.81;60.32;100472.81;4943262;29;19915;-79
2021/03/12 03:30:20;;;;;;;;;;;;;;;12.80;60.57;100472.00;4941136;29;19914;-80
2021/03/12 03:33:12;;;;;;;;;;;;;;;12.82;60.43;100474.41;4936377;29;19949;-80
2021/03/12 03:35:58;;;;;;;;;;;;;;;12.81;60.57;100464.63;4929916;29;19930;-78
2021/03/12 03:38:43;;;;;;;;;;;;;;;12.81;60.83;100464.63;4927454;29;19918;-78
2021/03/12 03:41:27;;;;;;;;;;;;;;;12.80;60.73;100455.63;4924732;29;19914;-81
2021/03/12 03:44:13;;;;;;;;;;;;;;;12.80;60.76;100452.91;4928063;29;19918;-79
2021/03/12 03:46:59;;;;;;;;;;;;;;;12.78;61.06;100457.94;4941246;29;19914;-79
2021/03/12 03:49:45;;;;;;;;;;;;;;;12.77;60.90;100447.34;4948644;28;19914;-79
2021/03/12 03:52:30;;;;;;;;;;;;;;;12.78;60.76;100451.66;4940550;29;19915;-79
2021/03/12 03:55:24;;;;;;;;;;;;;;;12.78;60.92;100457.94;4939492;29;19915;-79
2021/03/12 03:58:09;;;;;;;;;;;;;;;12.78;61.11;100451.66;4922821;29;19918;-78
2021/03/12 04:00:55;;;;;;;;;;;;;;;12.79;61.30;100458.72;4915709;29;20525;-79
2021/03/12 04:03:43;;;;;;;;;;;;;;;12.79;61.49;100459.53;4904806;29;20298;-79
2021/03/12 04:06:29;;;;;;;;;;;;;;;12.80;61.81;100454.84;4904290;29;20325;-79
2021/03/12 04:09:15;;;;;;;;;;;;;;;12.78;61.66;100447.00;4908292;29;19914;-78
2021/03/12 04:12:02;;;;;;;;;;;;;;;12.80;61.53;100446.66;4905950;29;19915;-78
2021/03/12 04:14:47;;;;;;;;;;;;;;;12.79;61.56;100442.34;4918314;29;19915;-79
2021/03/12 04:17:34;;;;;;;;;;;;;;;12.77;61.34;100444.59;4907229;29;19915;-78
2021/03/12 04:20:19;;;;;;;;;;;;;;;12.77;61.23;100452.78;4905178;29;19919;-79
2021/03/12 04:23:06;;;;;;;;;;;;;;;12.73;61.21;100455.41;4903205;29;19919;-78
2021/03/12 04:25:52;;;;;;;;;;;;;;;12.71;61.14;100457.66;4907081;29;19923;-78
2021/03/12 04:28:38;;;;;;;;;;;;;;;12.71;61.38;100471.31;4913313;29;19899;-80
2021/03/12 04:31:23;;;;;;;;;;;;;;;12.68;60.82;100469.25;4920837;29;20382;-79
2021/03/12 04:34:08;;;;;;;;;;;;;;;12.66;61.08;100468.78;4938910;29;19915;-79
2021/03/12 04:36:54;;;;;;;;;;;;;;;12.67;61.41;100472.31;4936889;29;19915;-79
2021/03/12 04:39:40;;;;;;;;;;;;;;;12.64;61.22;100476.53;4935163;29;19919;-79
2021/03/12 04:42:26;;;;;;;;;;;;;;;12.58;60.72;100475.13;4934713;29;19918;-79
2021/03/12 04:45:12;;;;;;;;;;;;;;;12.56;60.44;100482.81;4950638;29;20318;-80
2021/03/12 04:48:01;;;;;;;;;;;;;;;12.60;60.77;100488.41;4921374;29;19915;-79
2021/03/12 04:50:49;;;;;;;;;;;;;;;12.60;60.73;100483.75;4939837;29;19914;-79
2021/03/12 04:53:34;;;;;;;;;;;;;;;12.60;61.14;100481.03;4936822;29;19914;-80
2021/03/12 04:56:18;;;;;;;;;;;;;;;12.62;61.21;100486.16;4935009;29;19922;-80
2021/03/12 04:59:04;;;;;;;;;;;;;;;12.62;60.97;100495.13;4928371;29;19919;-80
2021/03/12 05:01:51;;;;;;;;;;;;;;;12.59;60.87;100484.09;4952363;29;19914;-81
2021/03/12 05:04:36;;;;;;;;;;;;;;;12.55;60.72;100483.97;4953647;29;19914;-80
2021/03/12 05:07:22;;;;;;;;;;;;;;;12.58;61.09;100486.03;4956228;29;20321;-81
2021/03/12 05:10:25;;;;;;;;;;;;;;;12.59;61.11;100493.09;4946476;29;19915;-80
2021/03/12 05:13:11;;;;;;;;;;;;;;;12.58;61.01;100494.22;4952498;29;19914;-81
2021/03/12 05:15:59;;;;;;;;;;;;;;;12.59;61.09;100498.53;4952702;29;19914;-79
2021/03/12 05:18:44;;;;;;;;;;;;;;;12.61;61.22;100490.00;4950478;29;19919;-80
2021/03/12 05:21:32;;;;;;;;;;;;;;;12.59;61.10;100493.09;4948094;29;19923;-80
2021/03/12 05:24:18;;;;;;;;;;;;;;;12.61;61.11;100498.19;4949578;29;19915;-81
2021/03/12 05:27:05;;;;;;;;;;;;;;;12.54;61.15;100498.75;4910375;29;19915;-80
2021/03/12 05:29:57;;;;;;;;;;;;;;;12.57;61.22;100494.53;4923639;29;19919;-80
2021/03/12 05:32:42;;;;;;;;;;;;;;;12.59;61.43;100492.28;4913214;29;19915;-81
2021/03/12 05:35:29;;;;;;;;;;;;;;;12.55;60.99;100492.13;4925444;29;20531;-81
2021/03/12 05:38:14;;;;;;;;;;;;;;;12.47;61.07;100508.59;4931281;29;19919;-81
2021/03/12 05:41:01;;;;;;;;;;;;;;;12.50;61.15;100511.44;4947267;29;19933;-80
2021/03/12 05:43:46;;;;;;;;;;;;;;;12.55;61.33;100511.22;4927812;29;20309;-80
2021/03/12 05:46:31;;;;;;;;;;;;;;;12.50;61.36;100516.88;4941834;29;19918;-81
2021/03/12 05:49:17;;;;;;;;;;;;;;;12.42;61.31;100515.03;4948055;29;20393;-81
2021/03/12 05:52:05;;;;;;;;;;;;;;;12.43;61.17;100519.38;4929383;29;19915;-81
2021/03/12 05:54:53;;;;;;;;;;;;;;;12.43;61.42;100522.09;4944478;29;20309;-80
2021/03/12 05:57:38;;;;;;;;;;;;;;;12.42;61.57;100521.28;4944970;29;19922;-82
2021/03/12 06:00:23;;;;;;;;;;;;;;;12.51;61.46;100514.97;4947608;29;20386;-80
2021/03/12 06:03:12;;;;;;;;;;;;;;;12.52;61.76;100514.63;4946138;29;20392;-81
2021/03/12 06:06:03;;;;;;;;;;;;;;;12.55;61.72;100522.13;4943737;29;19915;-79
2021/03/12 06:08:51;;;;;;;;;;;;;;;12.56;62.33;100514.75;4915440;29;19915;-80
2021/03/12 06:11:36;;;;;;;;;;;;;;;12.53;61.78;100499.88;4937874;29;19914;-79
2021/03/12 06:14:42;;;;;;;;;;;;;;;12.48;61.08;100513.72;4927687;29;19915;-80
2021/03/12 06:17:47;;;;;;;;;;;;;;;12.39;60.63;100515.72;4931265;29;20382;-79
2021/03/12 06:20:55;;;;;;;;;;;;;;;12.37;60.78;100513.31;4944829;29;19918;-80
2021/03/12 06:23:40;;;;;;;;;;;;;;;12.40;61.08;100515.34;4954671;28;19919;-80
2021/03/12 06:26:45;;;;;;;;;;;;;;;12.33;60.87;100519.75;4928106;29;19914;-80
2021/03/12 06:29:45;;;;;;;;;;;;;;;12.24;61.03;100527.19;4927326;29;19915;-82
2021/03/12 06:32:48;;;;;;;;;;;;;;;12.29;60.92;100530.50;4940355;29;19918;-81
2021/03/12 06:35:39;;;;;;;;;;;;;;;12.32;61.03;100532.59;4929564;29;19922;-78
2021/03/12 06:38:54;;;;;;;;;;;;;;;12.32;61.31;100526.34;4937441;29;19919;-78
2021/03/12 06:41:52;;;;;;;;;;;;;;;12.32;61.01;100537.25;4952355;28;19914;-78
2021/03/12 06:44:44;;;;;;;;;;;;;;;12.33;60.89;100539.66;4923075;29;19915;-77
2021/03/12 06:47:33;;;;;;;;;;;;;;;12.30;60.80;100534.84;4954103;28;19914;-78
2021/03/12 06:50:49;;;;;;;;;;;;;;;12.34;60.79;100535.00;4924492;29;19919;-79
2021/03/12 06:53:39;;;;;;;;;;;;;;;12.40;60.93;100530.91;4950804;28;19915;-79
2021/03/12 06:56:29;;;;;;;;;;;;;;;12.39;60.95;100534.81;4925332;29;19914;-80
2021/03/12 06:59:28;;;;;;;;;;;;;;;12.39;60.68;100534.81;4937777;29;20380;-79
2021/03/12 07:02:42;;;;;;;;;;;;;;;12.38;60.42;100528.53;4925682;29;19915;-79
2021/03/12 07:05:52;;;;;;;;;;;;;;;12.37;60.16;100529.66;4950080;28;19915;-80
2021/03/12 07:08:45;;;;;;;;;;;;;;;12.38;59.82;100546.84;4925769;29;19915;-80
2021/03/12 07:12:08;;;;;;;;;;;;;;;12.39;59.71;100545.72;4920048;29;19915;-79
2021/03/12 07:15:16;;;;;;;;;;;;;;;12.38;59.78;100557.75;4917899;29;19915;-78
2021/03/12 07:18:16;;;;;;;;;;;;;;;12.37;59.79;100547.94;4927257;29;19918;-79
2021/03/12 07:21:05;;;;;;;;;;;;;;;12.38;59.53;100549.56;4925904;29;20373;-78
2021/03/12 07:23:51;;;;;;;;;;;;;;;12.43;59.49;100565.72;4936226;29;20297;-78
2021/03/12 07:26:49;;;;;;;;;;;;;;;12.46;59.79;100566.97;4927184;29;19914;-79
2021/03/12 07:29:36;;;;;;;;;;;;;;;12.49;60.20;100579.97;4925103;29;19915;-79
2021/03/12 07:32:34;;;;;;;;;;;;;;;12.53;60.84;100576.25;4922553;29;19919;-78
2021/03/12 07:35:25;;;;;;;;;;;;;;;12.58;60.47;100583.44;4940377;29;19919;-79
2021/03/12 07:38:37;;;;;;;;;;;;;;;12.58;60.61;100576.06;4922437;29;19919;-79
2021/03/12 07:41:29;;;;;;;;;;;;;;;12.58;60.63;100584.22;4953486;28;20388;-78
2021/03/12 07:44:29;;;;;;;;;;;;;;;12.58;60.02;100577.97;4923877;29;19915;-79
2021/03/12 07:47:32;;;;;;;;;;;;;;;12.61;60.15;100578.09;4954887;28;19914;-80
2021/03/12 07:50:44;;;;;;;;;;;;;;;12.60;60.40;100583.88;4929869;29;19922;-80
2021/03/12 07:53:55;;;;;;;;;;;;;;;12.59;60.43;100595.94;4926029;29;20301;-80
2021/03/12 07:56:53;;;;;;;;;;;;;;;12.64;60.68;100601.22;4928818;29;19915;-80
2021/03/12 08:00:02;;;;;;;;;;;;;;;12.63;60.82;100608.59;4919535;29;20291;-79
2021/03/12 08:03:39;;;;;;;;;;;;;;;12.70;60.91;100614.31;4905042;29;20374;-79
2021/03/12 08:06:36;;;;;;;;;;;;;;;12.66;60.58;100612.56;4921614;29;19915;-78
2021/03/12 08:09:35;;;;;;;;;;;;;;;12.65;60.13;100602.78;4918064;29;19919;-79
2021/03/12 08:12:37;;;;;;;;;;;;;;;12.63;60.04;100614.03;4921697;29;20386;-79
2021/03/12 08:15:34;;;;;;;;;;;;;;;12.66;60.63;100618.81;4906576;29;19915;-79
2021/03/12 08:18:42;;;;;;;;;;;;;;;12.66;60.91;100616.09;4917387;29;19923;-79
2021/03/12 08:22:00;;;;;;;;;;;;;;;11.61;63.62;100607.91;4909431;29;19915;-77
2021/03/12 08:24:53;;;;;;;;;;;;;;;11.00;64.73;100607.19;4926313;29;19915;-77
2021/03/12 08:28:13;;;;;;;;;;;;;;;11.05;65.49;100604.31;4918650;29;20294;-78
2021/03/12 08:31:11;;;;;;;;;;;;;;;11.52;64.67;100607.13;4926081;29;19919;-78
2021/03/12 08:34:29;;;;;;;;;;;;;;;11.66;62.96;100607.75;4906469;29;19915;-76
2021/03/12 08:37:34;;;;;;;;;;;;;;;11.35;63.94;100605.25;4917590;29;19915;-78
2021/03/12 08:40:53;;;;;;;;;;;;;;;11.14;64.87;100605.09;4908029;29;19919;-78
2021/03/12 08:43:54;;;;;;;;;;;;;;;11.84;63.07;100601.13;4902907;29;20386;-77
2021/03/12 08:47:02;;;;;;;;;;;;;;;11.61;62.26;100605.19;4902628;29;19915;-77
2021/03/12 08:49:55;;;;;;;;;;;;;;;11.43;63.37;100600.88;4927441;29;19915;-77
2021/03/12 08:52:46;;;;;;;;;;;;;;;11.69;63.61;100600.81;4912563;29;19915;-77
2021/03/12 08:55:51;;;;;;;;;;;;;;;11.86;63.55;100604.34;4923070;29;19915;-78
2021/03/12 08:58:39;;;;;;;;;;;;;;;12.00;62.63;100596.75;4924391;29;19915;-77
2021/03/12 09:01:33;;;;;;;;;;;;;;;12.40;60.20;100593.63;4904420;29;19915;-77
2021/03/12 09:04:31;;;;;;;;;;;;;;;12.66;58.93;100594.28;4902135;29;19915;-78
2021/03/12 09:07:27;;;;;;;;;;;;;;;12.61;59.53;100589.00;4918399;29;19915;-78
2021/03/12 09:10:29;;;;;;;;;;;;;;;12.95;58.69;100587.97;4902284;29;19915;-77
2021/03/12 09:13:27;;;;;;;;;;;;;;;12.89;58.85;100594.75;4904335;29;19915;-77
2021/03/12 09:16:24;;;;;;;;;;;;;;;13.01;58.81;100586.59;4930853;29;19914;-78
2021/03/12 09:19:11;;;;;;;;;;;;;;;12.83;58.21;100579.72;4934156;29;19919;-78
2021/03/12 09:22:07;;;;;;;;;;;;;;;11.60;61.57;100587.25;4929088;29;19922;-77
2021/03/12 09:24:59;;;;;;;;;;;;;;;12.35;60.64;100581.00;4948871;28;19918;-78
2021/03/12 09:28:08;;;;;;;;;;;;;;;13.02;58.88;100577.28;4937258;29;19915;-77
2021/03/12 09:30:54;;;;;;;;;;;;;;;13.07;57.36;100581.75;4934082;29;20377;-78
2021/03/12 09:33:52;;;;;;;;;;;;;;;13.00;58.81;100578.78;4930310;29;19919;-78
2021/03/12 09:36:54;;;;;;;;;;;;;;;13.15;57.52;100575.47;4934157;29;19914;-77
2021/03/12 09:40:27;;;;;;;;;;;;;;;13.51;56.44;100566.59;4941165;29;19918;-78
2021/03/12 09:43:19;;;;;;;;;;;;;;;12.71;57.81;100574.97;4925468;29;19915;-78
2021/03/12 09:46:15;;;;;;;;;;;;;;;13.51;55.40;100572.81;4928788;29;19914;-77
2021/03/12 09:49:11;;;;;;;;;;;;;;;13.59;54.77;100569.22;4927145;29;19914;-78
2021/03/12 09:51:59;;;;;;;;;;;;;;;13.14;56.66;100579.31;4924514;29;19915;-81
2021/03/12 09:54:45;;;;;;;;;;;;;;;13.65;55.71;100562.38;4928446;29;19915;-81
2021/03/12 09:57:32;;;;;;;;;;;;;;;13.60;55.21;100562.59;4926644;29;19915;-81
2021/03/12 10:00:25;;;;;;;;;;;;;;;13.81;53.98;100559.00;4905421;29;20378;-81
2021/03/12 10:03:15;;;;;;;;;;;;;;;14.73;53.17;100554.47;4906432;29;19915;-81
2021/03/12 10:06:23;;;;;;;;;;;;;;;14.59;52.55;100547.78;4920746;29;19915;-80
2021/03/12 10:09:12;;;;;;;;;;;;;;;14.23;52.23;100537.66;4910170;29;19919;-80
2021/03/12 10:12:20;;;;;;;;;;;;;;;12.89;55.84;100537.44;4920185;29;20398;-81
2021/03/12 10:15:18;;;;;;;;;;;;;;;13.37;56.36;100539.56;4924092;29;19915;-80
2021/03/12 10:18:32;;;;;;;;;;;;;;;13.81;54.64;100528.94;4915748;29;20298;-81
2021/03/12 10:21:16;;;;;;;;;;;;;;;13.90;53.42;100524.13;4919898;29;19918;-81
2021/03/12 10:24:01;;;;;;;;;;;;;;;13.36;55.93;100521.56;4918700;29;19914;-81
2021/03/12 10:26:47;;;;;;;;;;;;;;;13.60;55.62;100521.63;4910720;29;19914;-82
2021/03/12 10:29:36;;;;;;;;;;;;;;;14.22;53.96;100520.44;4919744;29;20371;-82
2021/03/12 10:32:20;;;;;;;;;;;;;;;14.11;53.83;100519.34;4922845;29;19915;-82
2021/03/12 10:35:14;;;;;;;;;;;;;;;14.39;52.80;100513.97;4920946;29;19915;-80
2021/03/12 10:38:00;;;;;;;;;;;;;;;14.85;52.02;100510.63;4920708;29;19919;-81
2021/03/12 10:40:46;;;;;;;;;;;;;;;14.52;51.41;100513.59;4925461;29;19919;-82
2021/03/12 10:43:32;;;;;;;;;;;;;;;14.48;52.00;100507.22;4921663;29;19915;-82
2021/03/12 10:46:18;;;;;;;;;;;;;;;14.03;53.55;100509.31;4921401;29;19915;-83
2021/03/12 10:49:05;;;;;;;;;;;;;;;13.69;54.56;100505.91;4910177;29;20539;-81
2021/03/12 10:51:49;;;;;;;;;;;;;;;14.24;53.90;100507.25;4922759;29;19915;-80
2021/03/12 10:54:34;;;;;;;;;;;;;;;14.47;52.57;100504.84;4920703;29;19915;-80
2021/03/12 10:57:35;;;;;;;;;;;;;;;14.67;52.38;100494.84;4925979;29;19915;-81
2021/03/12 11:00:23;;;;;;;;;;;;;;;14.44;53.02;100498.09;4921493;29;19919;-80
2021/03/12 11:03:09;;;;;;;;;;;;;;;14.54;52.15;100492.16;4921367;29;19919;-82
2021/03/12 11:05:54;;;;;;;;;;;;;;;14.97;51.94;100485.94;4912590;29;19915;-79
2021/03/12 11:08:38;;;;;;;;;;;;;;;15.39;50.56;100479.97;4922158;29;20334;-78
2021/03/12 11:11:24;;;;;;;;;;;;;;;14.86;51.12;100486.78;4936950;29;20294;-79
2021/03/12 11:14:09;;;;;;;;;;;;;;;15.01;50.55;100474.28;4943578;29;19918;-78
2021/03/12 11:16:54;;;;;;;;;;;;;;;15.13;51.79;100477.75;4938741;29;19914;-79
2021/03/12 11:19:38;;;;;;;;;;;;;;;15.73;50.84;100478.50;4939466;29;19922;-78
2021/03/12 11:22:25;;;;;;;;;;;;;;;15.89;50.06;100481.22;4945599;29;19915;-79
2021/03/12 11:25:09;;;;;;;;;;;;;;;15.75;50.92;100478.91;4945169;29;20414;-79
2021/03/12 11:27:56;;;;;;;;;;;;;;;14.92;50.23;100480.72;4943544;29;19915;-79
2021/03/12 11:30:41;;;;;;;;;;;;;;;15.26;50.75;100487.47;4946696;29;19914;-79
2021/03/12 11:33:25;;;;;;;;;;;;;;;15.12;51.10;100478.91;4943741;29;19914;-79
2021/03/12 11:36:10;;;;;;;;;;;;;;;14.95;50.99;100477.25;4942095;29;19914;-79
2021/03/12 11:38:55;;;;;;;;;;;;;;;15.28;49.21;100468.75;4946301;29;20377;-80
2021/03/12 11:41:40;;;;;;;;;;;;;;;14.91;51.55;100462.69;4940020;29;19914;-79
2021/03/12 11:44:25;;;;;;;;;;;;;;;15.18;50.71;100465.75;4943845;29;19914;-78
2021/03/12 11:47:10;;;;;;;;;;;;;;;15.45;50.99;100464.84;4943025;29;20286;-79
2021/03/12 11:49:55;;;;;;;;;;;;;;;14.35;51.44;100455.59;4941397;29;20289;-79
2021/03/12 11:52:39;;;;;;;;;;;;;;;14.45;52.12;100446.94;4939497;29;19922;-78
2021/03/12 11:55:24;;;;;;;;;;;;;;;15.58;49.25;100438.19;4943017;29;19919;-79
2021/03/12 11:58:09;;;;;;;;;;;;;;;16.41;47.86;100423.16;4937658;29;19926;-78
2021/03/12 12:00:54;;;;;;;;;;;;;;;16.35;46.81;100421.88;4928789;29;19919;-78
2021/03/12 12:03:38;;;;;;;;;;;;;;;16.22;46.88;100423.97;4936837;29;19919;-78
2021/03/12 12:06:22;;;;;;;;;;;;;;;15.87;49.65;100420.44;4940458;29;19922;-78
2021/03/12 12:09:08;;;;;;;;;;;;;;;15.86;47.38;100425.13;4928781;29;19918;-79
2021/03/12 12:11:53;;;;;;;;;;;;;;;14.48;50.14;100422.41;4937189;29;19919;-77
2021/03/12 12:14:38;;;;;;;;;;;;;;;15.88;49.10;100419.28;4935151;28;19923;-77
2021/03/12 12:17:24;;;;;;;;;;;;;;;16.57;48.26;100412.91;4936205;29;19915;-77
2021/03/12 12:20:09;;;;;;;;;;;;;;;14.82;49.46;100412.78;4933803;29;19919;-78
2021/03/12 12:22:55;;;;;;;;;;;;;;;15.86;48.68;100411.41;4937242;29;19915;-77
2021/03/12 12:25:40;;;;;;;;;;;;;;;16.20;48.24;100398.84;4937229;29;20378;-77
2021/03/12 12:28:24;;;;;;;;;;;;;;;15.69;48.93;100395.38;4935914;29;19915;-76
2021/03/12 12:31:09;;;;;;;;;;;;;;;15.56;47.99;100396.63;4925036;29;19915;-77
2021/03/12 12:33:55;;;;;;;;;;;;;;;15.86;48.74;100388.69;4935672;29;19915;-77
2021/03/12 12:36:40;;;;;;;;;;;;;;;15.85;50.39;100376.91;4935874;29;20369;-77
2021/03/12 12:39:25;;;;;;;;;;;;;;;16.14;48.49;100381.06;4939820;29;20366;-76
2021/03/12 12:42:09;;;;;;;;;;;;;;;16.23;47.20;100376.97;4937906;29;19914;-77
2021/03/12 12:44:56;;;;;;;;;;;;;;;15.47;47.89;100372.13;4935048;29;19915;-76
2021/03/12 12:47:40;;;;;;;;;;;;;;;15.40;48.37;100372.75;4940132;29;19915;-77
2021/03/12 12:50:25;;;;;;;;;;;;;;;15.62;50.13;100363.13;4938370;29;19915;-77
2021/03/12 12:53:09;;;;;;;;;;;;;;;16.04;49.50;100363.25;4936691;29;20373;-77
2021/03/12 12:55:54;;;;;;;;;;;;;;;16.33;46.30;100358.31;4947247;28;19914;-79
2021/03/12 12:58:38;;;;;;;;;;;;;;;16.32;46.35;100348.50;4950694;28;19915;-81
2021/03/12 13:01:24;;;;;;;;;;;;;;;15.98;47.24;100342.75;4948756;28;20322;-81
2021/03/12 13:04:08;;;;;;;;;;;;;;;16.32;49.38;100337.53;4953963;28;20369;-81
2021/03/12 13:06:54;;;;;;;;;;;;;;;16.71;46.33;100336.31;4945572;29;19914;-79
2021/03/12 13:09:38;;;;;;;;;;;;;;;16.84;46.28;100335.00;4951638;28;19918;-80
2021/03/12 13:12:24;;;;;;;;;;;;;;;17.47;43.43;100337.19;4947948;29;19918;-79
2021/03/12 13:15:10;;;;;;;;;;;;;;;18.44;41.04;100332.50;4946674;29;19919;-79
2021/03/12 13:17:55;;;;;;;;;;;;;;;18.35;40.56;100332.81;4947555;28;19915;-78
2021/03/12 13:20:44;;;;;;;;;;;;;;;17.86;42.39;100337.72;4946944;29;19936;-80
2021/03/12 13:23:28;;;;;;;;;;;;;;;17.65;42.56;100340.19;4950021;28;20400;-82
2021/03/12 13:26:14;;;;;;;;;;;;;;;16.75;45.48;100331.69;4947186;28;19915;-80
2021/03/12 13:28:59;;;;;;;;;;;;;;;16.33;46.14;100326.19;4932628;29;19918;-80
2021/03/12 13:31:43;;;;;;;;;;;;;;;16.20;45.94;100322.78;4937626;29;19915;-79
2021/03/12 13:34:29;;;;;;;;;;;;;;;16.00;46.22;100315.72;4953856;28;19918;-80
2021/03/12 13:37:14;;;;;;;;;;;;;;;15.46;46.92;100325.91;4947472;29;19915;-81
2021/03/12 13:39:59;;;;;;;;;;;;;;;15.03;47.97;100319.44;4954069;28;19922;-81
2021/03/12 13:42:46;;;;;;;;;;;;;;;14.71;49.36;100318.63;4951896;28;19914;-80
2021/03/12 13:45:31;;;;;;;;;;;;;;;14.69;49.83;100309.19;4949151;28;20301;-80
2021/03/12 13:48:16;;;;;;;;;;;;;;;14.44;50.43;100308.53;4953888;28;20305;-80
2021/03/12 13:51:00;;;;;;;;;;;;;;;14.24;51.65;100306.78;4947834;29;19915;-80
2021/03/12 13:53:45;;;;;;;;;;;;;;;14.33;51.54;100313.69;4934896;29;19915;-80
2021/03/12 13:56:29;;;;;;;;;;;;;;;14.41;51.35;100310.03;4954158;28;19924;-79
2021/03/12 13:59:14;;;;;;;;;;;;;;;14.06;52.46;100307.13;4948020;28;19915;-79
2021/03/12 14:01:58;;;;;;;;;;;;;;;13.92;52.25;100303.97;4949041;28;19918;-80
2021/03/12 14:04:44;;;;;;;;;;;;;;;13.69;53.23;100300.97;4952669;28;19915;-80
2021/03/12 14:07:28;;;;;;;;;;;;;;;13.87;52.57;100300.66;4951361;28;19914;-80
2021/03/12 14:10:15;;;;;;;;;;;;;;;13.83;52.81;100302.50;4931967;29;19914;-80
2021/03/12 14:13:01;;;;;;;;;;;;;;;13.77;53.29;100296.50;4950727;28;19919;-79
2021/03/12 14:16:04;;;;;;;;;;;;;;;13.68;53.17;100288.44;4947325;29;19914;-79
2021/03/12 14:18:49;;;;;;;;;;;;;;;13.76;53.07;100288.66;4946996;28;19918;-79
2021/03/12 14:21:33;;;;;;;;;;;;;;;13.81;51.99;100302.09;4944322;29;19933;-79
2021/03/12 14:24:18;;;;;;;;;;;;;;;13.82;52.29;100287.25;4948015;28;19915;-79
2021/03/12 14:27:03;;;;;;;;;;;;;;;13.77;51.54;100276.56;4947363;28;20389;-79
2021/03/12 14:30:06;;;;;;;;;;;;;;;13.62;51.68;100278.91;4948880;29;19914;-80
2021/03/12 14:32:52;;;;;;;;;;;;;;;13.54;51.86;100270.84;4950202;28;20289;-79
2021/03/12 14:35:37;;;;;;;;;;;;;;;13.54;52.13;100266.19;4947733;28;19915;-80